createdAt,value
2022-10-29T00:00:55.575Z,18.63
2022-10-29T00:04:40.797Z,18.63
2022-10-29T00:08:12.688Z,16.20
2022-10-29T00:11:44.441Z,15.87
2022-10-29T00:15:16.595Z,18.50
2022-10-29T00:18:48.538Z,16.40
2022-10-29T00:22:20.649Z,18.40
2022-10-29T00:25:56.719Z,14.63
2022-10-29T00:29:28.601Z,15.77
2022-10-29T00:33:00.375Z,13.73
2022-10-29T00:36:32.337Z,16.00
2022-10-29T00:40:04.615Z,13.23
2022-10-29T00:43:38.282Z,12.27
2022-10-29T00:47:23.859Z,13.07
2022-10-29T00:50:57.468Z,15.38
2022-10-29T00:54:32.505Z,15.90
2022-10-29T00:58:04.683Z,14.87
2022-10-29T01:01:37.642Z,15.38
2022-10-29T01:05:10.926Z,11.32
2022-10-29T01:08:42.561Z,16.00
2022-10-29T01:12:49.909Z,12.83
2022-10-29T01:16:27.351Z,11.98
2022-10-29T01:20:17.939Z,17.20
2022-10-29T01:24:03.627Z,15.00
2022-10-29T01:27:47.370Z,14.63
2022-10-29T01:31:43.498Z,11.07
2022-10-29T01:35:27.844Z,13.10
2022-10-29T01:39:12.184Z,12.27
2022-10-29T01:42:53.936Z,14.53
2022-10-29T01:46:40.745Z,12.13
2022-10-29T01:50:18.566Z,11.60
2022-10-29T01:53:51.593Z,14.75
2022-10-29T01:57:29.533Z,11.93
2022-10-29T02:01:04.407Z,11.40
2022-10-29T02:05:02.212Z,11.55
2022-10-29T02:08:47.990Z,15.48
2022-10-29T02:12:29.517Z,11.20
2022-10-29T02:16:04.323Z,14.48
2022-10-29T02:19:36.603Z,13.35
2022-10-29T02:23:08.519Z,14.07
2022-10-29T02:26:40.379Z,11.67
2022-10-29T02:30:12.159Z,15.70
2022-10-29T02:33:44.059Z,13.35
2022-10-29T02:37:15.847Z,17.77
2022-10-29T02:40:47.751Z,11.83
2022-10-29T02:44:19.396Z,12.43
2022-10-29T02:47:51.227Z,17.58
2022-10-29T02:51:23.086Z,11.30
2022-10-29T02:54:54.973Z,13.80
2022-10-29T02:58:26.747Z,13.90
2022-10-29T03:01:58.736Z,13.73
2022-10-29T03:05:31.036Z,12.90
2022-10-29T03:09:04.045Z,13.40
2022-10-29T03:12:35.755Z,14.77
2022-10-29T03:16:07.979Z,14.63
2022-10-29T03:19:39.976Z,15.97
2022-10-29T03:23:11.984Z,13.97
2022-10-29T03:26:43.715Z,12.85
2022-10-29T03:30:17.217Z,13.77
2022-10-29T03:33:48.868Z,19.00
2022-10-29T03:37:20.842Z,11.03
2022-10-29T03:40:52.622Z,16.23
2022-10-29T03:44:24.479Z,11.70
2022-10-29T03:47:57.626Z,11.87
2022-10-29T03:51:29.893Z,13.30
2022-10-29T03:55:01.685Z,14.63
2022-10-29T03:58:33.632Z,13.18
2022-10-29T04:02:05.832Z,11.57
2022-10-29T04:05:38.727Z,12.77
2022-10-29T04:09:13.747Z,13.30
2022-10-29T04:12:46.722Z,14.13
2022-10-29T04:16:18.583Z,10.83
2022-10-29T04:19:50.568Z,11.47
2022-10-29T04:31:08.142Z,14.83
2022-10-29T04:34:40.364Z,14.13
2022-10-29T04:38:12.689Z,16.60
2022-10-29T04:41:47.729Z,17.27
2022-10-29T04:45:19.450Z,15.73
2022-10-29T04:48:51.583Z,10.27
2022-10-29T04:52:23.355Z,14.48
2022-10-29T04:56:03.499Z,16.92
2022-10-29T04:59:35.168Z,16.83
2022-10-29T05:03:07.337Z,11.90
2022-10-29T05:06:39.345Z,13.68
2022-10-29T05:10:11.728Z,14.50
2022-10-29T05:13:45.660Z,13.23
2022-10-29T05:17:17.555Z,17.03
2022-10-29T05:20:53.071Z,14.05
2022-10-29T05:24:25.362Z,12.40
2022-10-29T05:28:13.914Z,14.87
2022-10-29T05:31:45.914Z,11.53
2022-10-29T05:35:17.601Z,14.15
2022-10-29T05:38:49.498Z,17.48
2022-10-29T05:42:21.193Z,11.63
2022-10-29T05:45:53.053Z,14.53
2022-10-29T05:49:24.744Z,15.55
2022-10-29T05:53:04.828Z,13.25
2022-10-29T05:56:36.491Z,16.47
2022-10-29T06:00:09.225Z,17.05
2022-10-29T06:03:41.011Z,16.50
2022-10-29T06:07:13.034Z,12.70
2022-10-29T06:10:44.819Z,11.80
2022-10-29T06:14:16.807Z,11.35
2022-10-29T06:17:49.076Z,15.25
2022-10-29T06:21:20.961Z,18.23
2022-10-29T06:24:52.657Z,13.10
2022-10-29T06:28:24.551Z,14.07
2022-10-29T06:31:56.289Z,14.10
2022-10-29T06:35:29.188Z,15.83
2022-10-29T06:39:01.061Z,15.87
2022-10-29T06:42:32.928Z,17.35
2022-10-29T06:46:04.738Z,14.07
2022-10-29T06:49:36.577Z,14.90
2022-10-29T06:53:12.196Z,14.90
2022-10-29T06:56:44.093Z,26.95
2022-10-29T07:00:16.398Z,14.02
2022-10-29T07:03:48.979Z,16.83
2022-10-29T07:07:20.652Z,12.67
2022-10-29T07:10:53.731Z,20.60
2022-10-29T07:14:25.428Z,16.85
2022-10-29T07:18:05.377Z,17.57
2022-10-29T07:21:37.307Z,18.73
2022-10-29T07:25:09.345Z,15.65
2022-10-29T07:28:41.007Z,16.08
2022-10-29T07:32:12.967Z,17.43
2022-10-29T07:35:45.120Z,16.50
2022-10-29T07:39:17.396Z,12.48
2022-10-29T07:42:52.736Z,17.30
2022-10-29T07:46:24.646Z,14.37
2022-10-29T07:49:56.282Z,17.17
2022-10-29T07:53:31.245Z,17.70
2022-10-29T07:57:02.991Z,17.15
2022-10-29T08:00:37.153Z,18.77
2022-10-29T08:04:08.847Z,18.10
2022-10-29T08:07:40.759Z,17.98
2022-10-29T08:11:12.535Z,13.50
2022-10-29T08:14:44.520Z,16.03
2022-10-29T08:18:18.259Z,14.53
2022-10-29T08:21:50.140Z,16.88
2022-10-29T08:25:22.230Z,16.83
2022-10-29T08:28:54.109Z,17.40
2022-10-29T08:32:25.916Z,19.80
2022-10-29T08:35:57.831Z,15.07
2022-10-29T08:39:29.508Z,15.52
2022-10-29T08:43:16.085Z,18.10
2022-10-29T08:46:54.199Z,16.77
2022-10-29T08:50:33.143Z,15.80
2022-10-29T08:54:29.666Z,14.70
2022-10-29T08:57:59.699Z,21.33
2022-10-29T09:01:31.872Z,14.80
2022-10-29T09:05:04.083Z,14.73
2022-10-29T09:09:00.912Z,16.77
2022-10-29T09:12:51.472Z,15.33
2022-10-29T09:16:45.797Z,17.93
2022-10-29T09:20:40.554Z,13.32
2022-10-29T09:24:25.770Z,16.38
2022-10-29T09:28:06.656Z,18.23
2022-10-29T09:31:47.445Z,11.97
2022-10-29T09:35:20.082Z,16.15
2022-10-29T09:38:58.351Z,13.68
2022-10-29T09:42:38.264Z,15.15
2022-10-29T09:46:20.821Z,15.90
2022-10-29T09:50:16.912Z,17.88
2022-10-29T09:53:50.871Z,14.15
2022-10-29T09:57:26.588Z,15.77
2022-10-29T10:00:58.295Z,10.43
2022-10-29T10:04:36.154Z,14.90
2022-10-29T10:08:13.470Z,15.15
2022-10-29T10:11:52.957Z,15.98
2022-10-29T10:15:47.535Z,9.83
2022-10-29T10:19:26.226Z,10.52
2022-10-29T10:22:58.425Z,9.10
2022-10-29T10:26:32.272Z,9.30
2022-10-29T10:30:04.020Z,11.87
2022-10-29T10:33:43.785Z,10.65
2022-10-29T10:37:20.173Z,13.52
2022-10-29T10:41:07.684Z,10.27
2022-10-29T10:44:47.242Z,15.10
2022-10-29T10:48:19.386Z,12.03
2022-10-29T10:51:54.608Z,12.05
2022-10-29T10:55:31.231Z,9.60
2022-10-29T10:59:11.193Z,6.77
2022-10-29T11:02:51.259Z,5.50
2022-10-29T11:06:29.779Z,5.25
2022-10-29T11:10:06.215Z,7.93
2022-10-29T11:13:41.303Z,8.27
2022-10-29T11:17:29.114Z,4.90
2022-10-29T11:21:19.574Z,7.95
2022-10-29T11:24:59.335Z,5.97
2022-10-29T11:28:40.716Z,11.40
2022-10-29T11:32:22.600Z,7.50
2022-10-29T11:36:19.901Z,8.15
2022-10-29T11:40:02.585Z,9.35
2022-10-29T11:43:34.793Z,5.72
2022-10-29T11:47:12.718Z,6.47
2022-10-29T11:51:03.248Z,5.77
2022-10-29T11:54:47.106Z,5.13
2022-10-29T11:58:38.073Z,8.23
2022-10-29T12:02:44.682Z,8.55
2022-10-29T12:06:31.725Z,6.93
2022-10-29T12:10:32.838Z,8.95
2022-10-29T12:14:26.342Z,6.85
2022-10-29T12:18:23.639Z,6.05
2022-10-29T12:22:06.291Z,9.77
2022-10-29T12:25:59.557Z,10.83
2022-10-29T12:29:47.896Z,8.45
2022-10-29T12:33:53.704Z,11.18
2022-10-29T12:37:40.822Z,8.20
2022-10-29T12:41:34.560Z,10.40
2022-10-29T12:45:09.750Z,8.20
2022-10-29T12:48:59.234Z,9.07
2022-10-29T12:52:34.029Z,8.57
2022-10-29T12:56:07.665Z,12.37
2022-10-29T12:59:40.579Z,12.18
2022-10-29T13:03:12.501Z,8.68
2022-10-29T13:06:46.185Z,9.30
2022-10-29T13:10:25.155Z,8.20
2022-10-29T13:14:00.328Z,10.38
2022-10-29T13:17:35.496Z,12.98
2022-10-29T13:21:07.423Z,10.98
2022-10-29T13:24:39.388Z,12.77
2022-10-29T13:28:11.050Z,7.80
2022-10-29T13:31:46.243Z,9.63
2022-10-29T13:35:17.864Z,11.00
2022-10-29T13:39:04.635Z,11.47
2022-10-29T13:42:38.389Z,8.17
2022-10-29T13:46:25.945Z,7.65
2022-10-29T13:49:58.672Z,5.90
2022-10-29T13:53:41.206Z,8.38
2022-10-29T13:57:13.174Z,10.20
2022-10-29T14:00:46.378Z,10.50
2022-10-29T14:04:26.857Z,9.30
2022-10-29T14:08:18.621Z,9.48
2022-10-29T14:11:58.021Z,8.33
2022-10-29T14:15:30.114Z,11.82
2022-10-29T14:19:19.171Z,8.38
2022-10-29T14:22:51.452Z,10.07
2022-10-29T14:26:24.732Z,12.70
2022-10-29T14:30:19.823Z,9.30
2022-10-29T14:33:59.765Z,12.43
2022-10-29T14:37:42.203Z,13.35
2022-10-29T14:41:15.181Z,11.82
2022-10-29T14:44:53.835Z,11.47
2022-10-29T14:48:25.986Z,11.40
2022-10-29T14:52:06.666Z,12.88
2022-10-29T14:55:42.468Z,13.15
2022-10-29T14:59:24.980Z,9.02
2022-10-29T15:03:00.683Z,12.20
2022-10-29T15:06:32.826Z,14.35
2022-10-29T15:10:19.061Z,8.85
2022-10-29T15:13:50.740Z,16.05
2022-10-29T15:17:26.824Z,8.87
2022-10-29T15:20:58.842Z,11.43
2022-10-29T15:24:30.837Z,12.82
2022-10-29T15:28:03.436Z,11.60
2022-10-29T15:31:49.737Z,10.63
2022-10-29T15:35:21.846Z,10.15
2022-10-29T15:39:29.167Z,9.70
2022-10-29T15:43:29.094Z,13.20
2022-10-29T15:47:16.227Z,11.67
2022-10-29T15:50:47.959Z,12.52
2022-10-29T15:54:19.939Z,12.45
2022-10-29T15:57:52.165Z,11.68
2022-10-29T16:01:24.494Z,14.93
2022-10-29T16:04:56.246Z,10.82
2022-10-29T16:08:33.822Z,12.65
2022-10-29T16:12:05.673Z,16.23
2022-10-29T16:15:40.190Z,16.47
2022-10-29T16:19:14.952Z,13.63
2022-10-29T16:22:48.087Z,12.27
2022-10-29T16:26:22.812Z,13.73
2022-10-29T16:29:54.719Z,15.77
2022-10-29T16:33:26.750Z,12.60
2022-10-29T16:36:58.647Z,19.83
2022-10-29T16:40:30.322Z,13.90
2022-10-29T16:44:02.243Z,14.70
2022-10-29T16:47:34.041Z,13.80
2022-10-29T16:51:06.754Z,18.15
2022-10-29T16:54:38.392Z,16.63
2022-10-29T16:58:14.654Z,28.00
2022-10-29T17:01:47.739Z,27.83
2022-10-29T17:05:20.247Z,22.73
2022-10-29T17:08:51.892Z,20.10
2022-10-29T17:12:25.809Z,15.13
2022-10-29T17:15:57.967Z,17.67
2022-10-29T17:19:32.864Z,17.17
2022-10-29T17:23:04.519Z,18.10
2022-10-29T17:26:36.425Z,20.87
2022-10-29T17:30:09.464Z,18.38
2022-10-29T17:33:41.388Z,18.95
2022-10-29T17:37:13.249Z,23.17
2022-10-29T17:40:46.216Z,20.57
2022-10-29T17:44:18.626Z,23.90
2022-10-29T17:47:58.357Z,28.05
2022-10-29T17:51:30.403Z,30.07
2022-10-29T17:55:02.360Z,27.47
2022-10-29T17:58:34.169Z,26.75
2022-10-29T18:02:06.118Z,29.05
2022-10-29T18:05:38.386Z,29.43
2022-10-29T18:09:10.773Z,27.97
2022-10-29T18:12:42.505Z,28.30
2022-10-29T18:16:18.565Z,22.63
2022-10-29T18:19:50.245Z,22.58
2022-10-29T18:23:24.608Z,21.60
2022-10-29T18:26:56.583Z,21.00
2022-10-29T18:30:28.503Z,20.33
2022-10-29T18:34:04.760Z,19.23
2022-10-29T18:37:36.732Z,22.67
2022-10-29T18:41:09.125Z,22.48
2022-10-29T18:44:41.014Z,21.33
2022-10-29T18:48:12.822Z,24.93
2022-10-29T18:51:45.062Z,23.60
2022-10-29T18:55:16.861Z,27.85
2022-10-29T18:58:49.081Z,27.20
2022-10-29T19:02:20.826Z,25.30
2022-10-29T19:05:52.877Z,32.10
2022-10-29T19:09:24.575Z,32.22
2022-10-29T19:12:56.884Z,44.78
2022-10-29T19:16:30.603Z,36.53
2022-10-29T19:20:02.523Z,38.83
2022-10-29T19:23:34.832Z,30.65
2022-10-29T19:27:06.699Z,30.23
2022-10-29T19:30:38.358Z,31.63
2022-10-29T19:34:10.284Z,26.50
2022-10-29T19:37:42.046Z,26.40
2022-10-29T19:41:15.415Z,25.35
2022-10-29T19:44:50.790Z,28.83
2022-10-29T19:48:26.138Z,28.23
2022-10-29T19:51:57.922Z,31.08
2022-10-29T19:55:29.998Z,27.58
2022-10-29T19:59:03.621Z,26.43
2022-10-29T20:02:35.527Z,33.63
2022-10-29T20:06:09.206Z,25.48
2022-10-29T20:09:41.152Z,28.83
2022-10-29T20:13:12.813Z,30.00
2022-10-29T20:16:45.135Z,25.47
2022-10-29T20:20:17.431Z,25.67
2022-10-29T20:23:49.403Z,28.08
2022-10-29T20:27:21.050Z,27.60
2022-10-29T20:31:18.547Z,21.97
2022-10-29T20:34:51.157Z,32.15
2022-10-29T20:38:23.002Z,31.20
2022-10-29T20:41:54.695Z,31.50
2022-10-29T20:45:26.632Z,34.17
2022-10-29T20:48:58.548Z,31.30
2022-10-29T20:52:30.484Z,26.83
2022-10-29T20:56:02.235Z,27.57
2022-10-29T20:59:34.184Z,27.53
2022-10-29T21:03:05.892Z,30.15
2022-10-29T21:06:37.763Z,28.13
2022-10-29T21:10:09.873Z,30.47
2022-10-29T21:13:42.040Z,30.10
2022-10-29T21:17:15.990Z,26.90
2022-10-29T21:20:48.420Z,26.83
2022-10-29T21:24:20.301Z,30.43
2022-10-29T21:27:54.392Z,31.37
2022-10-29T21:31:26.589Z,34.08
2022-10-29T21:34:58.512Z,37.45
2022-10-29T21:38:31.027Z,37.00
2022-10-29T21:42:03.186Z,33.70
2022-10-29T21:45:34.823Z,37.67
2022-10-29T21:49:06.692Z,34.72
2022-10-29T21:52:38.449Z,39.37
2022-10-29T21:56:12.967Z,42.27
2022-10-29T21:59:44.609Z,45.38
2022-10-29T22:03:16.543Z,48.70
2022-10-29T22:06:48.195Z,50.77
2022-10-29T22:10:20.090Z,44.70
2022-10-29T22:13:52.537Z,50.05
2022-10-29T22:17:27.067Z,48.95
2022-10-29T22:21:10.206Z,56.57
2022-10-29T22:24:42.348Z,48.97
2022-10-29T22:28:14.225Z,57.28
2022-10-29T22:31:46.119Z,57.65
2022-10-29T22:35:17.758Z,59.57
2022-10-29T22:38:54.312Z,52.03
2022-10-29T22:42:26.206Z,60.10
2022-10-29T22:45:58.073Z,51.20
2022-10-29T22:49:29.690Z,59.90
2022-10-29T22:53:01.593Z,49.30
2022-10-29T22:56:35.385Z,54.25
2022-10-29T23:00:07.717Z,53.13
2022-10-29T23:03:41.977Z,47.57
2022-10-29T23:07:13.869Z,48.40
2022-10-29T23:10:45.505Z,55.83
2022-10-29T23:14:17.386Z,48.17
2022-10-29T23:17:53.219Z,51.70
2022-10-29T23:21:25.396Z,62.40
2022-10-29T23:24:57.019Z,61.47
2022-10-29T23:28:40.165Z,68.63
2022-10-29T23:32:11.786Z,58.60
2022-10-29T23:35:43.656Z,67.70
2022-10-29T23:39:15.458Z,69.38
2022-10-29T23:42:47.293Z,66.70
2022-10-29T23:46:19.465Z,70.80
2022-10-29T23:49:51.365Z,69.20
2022-10-29T23:53:23.954Z,65.07
2022-10-29T23:56:55.839Z,67.75
